Time;durP1;ratioP1;P1;durP2;ratioP2;P2;SDS_P1;SDS_P2;PMS_P1;PMS_P2;Temp;Humidity;BMP_temperature;BMP_pressure;BME280_temperature;BME280_humidity;BME280_pressure;Samples;Min_cycle;Max_cycle;Signal;HPM_P1;HPM_P2
2022/12/26 00:01:12;;;;;;;2.77;2.57;;;15.90;55.20;;;;;;4993554;28;20210;-58
2022/12/26 00:03:37;;;;;;;2.60;2.40;;;16.00;54.90;;;;;;4993277;28;20488;-58
2022/12/26 00:06:03;;;;;;;3.33;2.80;;;15.90;55.00;;;;;;4993580;28;20465;-58
2022/12/26 00:08:29;;;;;;;3.07;2.80;;;15.80;55.10;;;;;;4992716;28;20575;-58
2022/12/26 00:10:55;;;;;;;2.77;2.40;;;15.70;55.40;;;;;;4993199;28;20430;-58
2022/12/26 00:13:21;;;;;;;2.57;2.37;;;15.80;55.60;;;;;;4993112;28;20199;-58
2022/12/26 00:15:47;;;;;;;3.33;3.03;;;15.80;55.40;;;;;;4993231;28;20213;-58
2022/12/26 00:18:12;;;;;;;3.10;2.90;;;15.80;55.70;;;;;;4994934;28;20704;-58
2022/12/26 00:20:38;;;;;;;3.13;2.87;;;15.80;55.80;;;;;;5003955;28;20277;-58
2022/12/26 00:23:03;;;;;;;2.83;2.63;;;15.70;55.60;;;;;;4991400;28;20191;-58
2022/12/26 00:25:29;;;;;;;3.20;2.50;;;15.80;55.80;;;;;;4987323;28;20233;-58
2022/12/26 00:27:55;;;;;;;3.00;2.80;;;15.80;55.60;;;;;;4992580;28;20292;-58
2022/12/26 00:30:20;;;;;;;3.10;2.80;;;15.80;55.60;;;;;;4993127;28;20289;-58
2022/12/26 00:32:46;;;;;;;2.40;2.20;;;15.80;55.60;;;;;;4992055;28;20226;-58
2022/12/26 00:35:11;;;;;;;2.93;2.73;;;15.90;55.60;;;;;;4992749;28;20202;-58
2022/12/26 00:37:37;;;;;;;2.90;2.70;;;15.70;55.70;;;;;;4992779;28;20191;-58
2022/12/26 00:40:03;;;;;;;2.77;2.57;;;15.80;55.90;;;;;;4992288;28;20202;-58
2022/12/26 00:42:29;;;;;;;2.63;2.43;;;15.80;55.70;;;;;;4992704;28;20197;-58
2022/12/26 00:44:54;;;;;;;3.27;2.97;;;15.90;55.60;;;;;;4992746;28;20485;-58
2022/12/26 00:47:20;;;;;;;2.63;2.43;;;15.80;55.60;;;;;;4992578;28;20201;-58
2022/12/26 00:49:46;;;;;;;2.80;2.60;;;15.70;55.90;;;;;;4990508;28;20643;-58
2022/12/26 00:52:11;;;;;;;2.90;2.70;;;15.80;55.90;;;;;;4992705;28;20257;-58
2022/12/26 00:54:37;;;;;;;2.77;2.57;;;15.80;55.80;;;;;;4992642;28;20198;-58
2022/12/26 00:57:02;;;;;;;6.10;2.70;;;15.90;55.60;;;;;;4992420;28;20203;-58
2022/12/26 00:59:28;;;;;;;3.07;2.77;;;16.00;55.30;;;;;;4992458;28;20191;-58
2022/12/26 01:01:53;;;;;;;3.20;2.90;;;16.20;55.20;;;;;;4992365;28;20191;-58
2022/12/26 01:04:19;;;;;;;3.50;3.07;;;16.20;54.80;;;;;;4992281;28;20273;-58
2022/12/26 01:06:44;;;;;;;3.00;2.43;;;16.30;54.70;;;;;;4992379;28;20682;-58
2022/12/26 01:09:12;;;;;;;2.90;2.57;;;16.30;54.70;;;;;;4992048;28;20705;-58
2022/12/26 01:11:40;;;;;;;3.23;2.93;;;16.30;54.70;;;;;;4992092;28;20202;-58
2022/12/26 01:14:12;;;;;;;2.20;2.10;;;16.40;54.60;;;;;;4992107;28;20438;-58
2022/12/26 01:16:38;;;;;;;2.77;2.53;;;16.40;54.40;;;;;;4990471;28;20470;-58
2022/12/26 01:19:05;;;;;;;3.43;2.70;;;16.50;54.30;;;;;;5001037;28;20418;-58
2022/12/26 01:21:30;;;;;;;2.60;2.33;;;16.50;54.20;;;;;;4995847;28;20422;-58
2022/12/26 01:23:56;;;;;;;2.20;2.10;;;16.30;54.20;;;;;;4988884;28;20477;-58
2022/12/26 01:26:22;;;;;;;3.83;2.43;;;16.10;54.40;;;;;;4990184;28;20194;-58
2022/12/26 01:28:48;;;;;;;2.50;2.30;;;15.90;55.10;;;;;;4991968;28;20616;-58
2022/12/26 01:31:14;;;;;;;2.60;2.40;;;16.00;55.00;;;;;;4991816;28;20673;-58
2022/12/26 01:33:40;;;;;;;3.40;3.10;;;16.00;55.00;;;;;;4992036;28;20921;-58
2022/12/26 01:36:05;;;;;;;2.70;2.50;;;16.00;55.10;;;;;;4991798;28;20426;-58
2022/12/26 01:38:31;;;;;;;3.30;2.80;;;16.10;54.90;;;;;;4991800;28;20199;-58
2022/12/26 01:44:00;;;;;;;4.50;3.03;;;16.20;55.10;;;;;;4990446;28;20580;-58
2022/12/26 01:46:37;;;;;;;4.10;3.13;;;16.40;54.50;;;;;;4995904;28;20507;-58
2022/12/26 01:49:12;;;;;;;5.10;3.20;;;16.30;54.60;;;;;;4995390;28;20441;-58
2022/12/26 01:51:43;;;;;;;3.50;2.73;;;16.30;54.70;;;;;;4996079;28;20520;-58
2022/12/26 01:54:12;;;;;;;3.10;2.70;;;16.10;54.50;;;;;;4995899;28;20848;-58
2022/12/26 01:56:40;;;;;;;3.27;2.97;;;15.50;55.70;;;;;;4995838;28;20520;-57
2022/12/26 01:59:10;;;;;;;2.90;2.50;;;15.10;56.60;;;;;;4995177;28;20429;-58
2022/12/26 02:01:39;;;;;;;4.20;2.80;;;15.00;57.10;;;;;;4995584;28;20422;-58
2022/12/26 02:06:52;;;;;;;3.13;2.30;;;14.90;57.80;;;;;;4995877;28;20480;-58
2022/12/26 02:09:18;;;;;;;4.13;2.70;;;14.90;57.90;;;;;;4993642;28;20422;-58
2022/12/26 02:11:48;;;;;;;2.50;2.30;;;15.00;57.70;;;;;;4995396;28;20599;-58
2022/12/26 02:14:14;;;;;;;2.67;2.33;;;14.90;58.00;;;;;;4995477;28;20488;-58
2022/12/26 02:16:40;;;;;;;6.17;2.90;;;15.10;57.70;;;;;;4995293;28;20509;-58
2022/12/26 02:19:25;;;;;;;3.67;2.80;;;15.30;57.20;;;;;;5004126;28;20190;-58
2022/12/26 02:22:03;;;;;;;3.53;2.80;;;15.60;56.70;;;;;;4996241;28;20484;-58
2022/12/26 02:24:50;;;;;;;2.83;2.53;;;15.70;56.30;;;;;;4990118;28;20477;-58
2022/12/26 02:27:34;;;;;;;2.80;2.60;;;15.50;56.50;;;;;;4995098;28;20445;-58
2022/12/26 02:30:06;;;;;;;2.70;2.40;;;15.50;56.70;;;;;;4993595;28;20953;-58
2022/12/26 02:33:03;;;;;;;2.63;2.37;;;15.50;56.60;;;;;;4995003;28;20516;-58
2022/12/26 02:35:55;;;;;;;2.73;2.53;;;15.40;56.80;;;;;;4994042;28;20422;-58
2022/12/26 02:38:24;;;;;;;2.50;2.30;;;15.30;57.10;;;;;;4994698;28;20426;-58
2022/12/26 02:41:00;;;;;;;2.47;2.30;;;15.20;57.20;;;;;;4994735;28;20991;-58
2022/12/26 02:43:42;;;;;;;2.50;2.30;;;15.40;57.10;;;;;;4994813;28;20862;-58
2022/12/26 03:13:09;;;;;;;4.10;2.30;;;15.70;56.40;;;;;;4994607;28;20480;-58
2022/12/26 03:13:24;;;;;;;2.33;2.13;;;16.10;55.90;;;;;;4994477;28;20433;-58
2022/12/26 03:18:57;;;;;;;2.43;2.23;;;16.20;55.70;;;;;;5001388;28;20478;-61
2022/12/26 03:21:27;;;;;;;3.03;2.43;;;16.00;56.00;;;;;;4999112;28;20446;-58
2022/12/26 03:23:55;;;;;;;3.30;2.33;;;15.90;56.10;;;;;;4991466;28;20550;-58
2022/12/26 03:26:39;;;;;;;2.43;2.23;;;15.90;56.20;;;;;;4991852;28;20441;-58
2022/12/26 03:31:52;;;;;;;2.50;2.30;;;15.90;56.00;;;;;;4994194;28;20983;-58
2022/12/26 03:34:18;;;;;;;4.50;2.80;;;15.80;56.30;;;;;;4993822;28;20422;-58
2022/12/26 03:37:02;;;;;;;2.97;2.67;;;15.90;56.30;;;;;;4993432;28;20197;-58
2022/12/26 04:46:33;;;;;;;2.60;2.20;;;16.00;55.90;;;;;;4992759;28;20426;-58
2022/12/26 04:51:46;;;;;;;2.70;2.50;;;16.10;56.00;;;;;;4992811;28;20521;-58
2022/12/26 04:54:12;;;;;;;3.00;2.70;;;16.10;55.90;;;;;;4992557;28;20516;-58
2022/12/26 04:56:37;;;;;;;2.20;2.00;;;16.20;55.70;;;;;;4992595;28;20190;-58
2022/12/26 04:59:03;;;;;;;2.20;2.00;;;16.10;55.80;;;;;;4991978;28;20206;-58
2022/12/26 05:09:50;;;;;;;2.53;2.33;;;16.10;56.00;;;;;;4992329;28;20437;-58
2022/12/26 05:12:16;;;;;;;2.77;2.47;;;16.10;55.90;;;;;;4992101;28;20470;-58
2022/12/26 05:14:41;;;;;;;2.60;2.37;;;16.00;55.90;;;;;;4990774;28;20484;-58
2022/12/26 05:31:00;;;;;;;2.17;2.00;;;16.10;56.10;;;;;;4992179;28;20513;-58
2022/12/26 05:36:11;;;;;;;2.40;2.20;;;16.20;55.80;;;;;;4992212;28;20808;-58
2022/12/26 05:38:37;;;;;;;2.30;2.10;;;16.20;55.70;;;;;;4991608;28;20421;-58
2022/12/26 05:41:03;;;;;;;2.70;2.17;;;16.30;55.80;;;;;;4990265;28;20422;-58
2022/12/26 05:43:29;;;;;;;4.47;2.90;;;16.20;55.60;;;;;;4991952;28;20437;-58
2022/12/26 05:45:54;;;;;;;3.90;2.63;;;16.30;55.60;;;;;;4991875;28;20474;-58
2022/12/26 05:48:20;;;;;;;3.47;3.17;;;16.30;55.60;;;;;;4991653;28;20202;-58
2022/12/26 05:50:46;;;;;;;3.07;2.87;;;16.40;55.50;;;;;;4991903;28;20226;-58
2022/12/26 05:53:11;;;;;;;2.67;2.47;;;16.40;55.40;;;;;;4992111;28;20194;-58
2022/12/26 05:55:38;;;;;;;3.13;2.50;;;16.50;55.50;;;;;;4991728;28;20249;-58
2022/12/26 05:58:04;;;;;;;2.37;2.17;;;16.50;55.30;;;;;;4991400;28;20601;-58
2022/12/26 06:00:30;;;;;;;3.03;2.83;;;16.50;55.20;;;;;;4991719;28;20430;-58
2022/12/26 06:02:58;;;;;;;2.23;2.03;;;16.50;55.30;;;;;;4991710;28;20199;-58
2022/12/26 06:05:23;;;;;;;2.77;2.40;;;16.40;55.30;;;;;;4991519;28;20486;-58
2022/12/26 06:07:49;;;;;;;2.90;2.70;;;16.40;55.40;;;;;;4989763;28;20476;-58
2022/12/26 06:10:14;;;;;;;3.77;2.50;;;16.40;55.40;;;;;;4991587;28;20218;-58
2022/12/26 06:12:40;;;;;;;2.73;2.53;;;16.50;55.20;;;;;;4991776;28;20194;-58
2022/12/26 06:15:06;;;;;;;2.83;2.00;;;16.60;55.00;;;;;;4991631;28;20603;-58
2022/12/26 06:17:32;;;;;;;2.50;2.30;;;16.60;55.00;;;;;;4991163;28;20304;-58
2022/12/26 06:19:57;;;;;;;4.13;2.33;;;16.60;55.00;;;;;;5004818;28;20937;-58
2022/12/26 06:22:23;;;;;;;2.63;2.30;;;16.60;54.90;;;;;;4991806;28;20186;-58
2022/12/26 06:24:49;;;;;;;2.90;2.70;;;16.60;54.90;;;;;;4986279;28;20638;-58
2022/12/26 06:27:14;;;;;;;2.27;2.10;;;16.60;54.90;;;;;;4991536;28;20198;-58
2022/12/26 06:29:40;;;;;;;3.30;2.47;;;16.70;54.90;;;;;;4991129;28;20207;-58
2022/12/26 06:32:05;;;;;;;3.60;2.27;;;16.80;54.70;;;;;;4993673;28;20187;-58
2022/12/26 06:34:31;;;;;;;3.03;2.50;;;16.70;54.60;;;;;;4993505;28;20654;-58
2022/12/26 06:36:57;;;;;;;2.63;2.43;;;16.70;54.30;;;;;;4995114;28;20205;-58
2022/12/26 06:39:23;;;;;;;3.50;2.57;;;16.70;54.40;;;;;;4994640;28;20186;-58
2022/12/26 06:41:49;;;;;;;3.07;2.27;;;16.80;54.90;;;;;;4995062;28;20222;-58
2022/12/26 06:44:14;;;;;;;2.47;2.27;;;16.90;54.30;;;;;;4994728;28;20849;-58
2022/12/26 06:46:40;;;;;;;2.63;2.43;;;16.90;54.00;;;;;;4994945;28;20232;-58
2022/12/26 06:49:06;;;;;;;2.90;2.70;;;16.80;54.20;;;;;;4994403;28;20252;-58
2022/12/26 06:51:32;;;;;;;2.47;2.03;;;16.90;54.20;;;;;;4994867;28;20249;-58
2022/12/26 06:54:01;;;;;;;2.13;1.93;;;16.90;54.10;;;;;;4994726;28;20198;-58
2022/12/26 06:56:28;;;;;;;2.20;2.10;;;16.80;54.20;;;;;;4994847;28;20477;-58
2022/12/26 06:58:58;;;;;;;3.13;2.40;;;16.60;54.50;;;;;;4994353;28;20500;-58
2022/12/26 07:01:25;;;;;;;2.17;2.07;;;16.60;54.60;;;;;;4993008;28;20513;-58
2022/12/26 07:03:52;;;;;;;2.90;2.00;;;16.50;54.70;;;;;;4994390;28;20918;-58
2022/12/26 07:06:35;;;;;;;4.10;2.27;;;16.50;54.90;;;;;;4994592;28;20434;-58
2022/12/26 07:09:04;;;;;;;2.43;2.23;;;16.50;54.80;;;;;;4993959;28;20480;-58
2022/12/26 07:11:32;;;;;;;2.67;2.47;;;16.50;54.90;;;;;;4994423;28;20457;-58
2022/12/26 07:13:58;;;;;;;3.13;2.20;;;16.50;54.80;;;;;;4994500;28;20445;-58
2022/12/26 07:16:24;;;;;;;2.50;2.30;;;16.50;54.70;;;;;;4994205;28;20458;-58
2022/12/26 07:18:53;;;;;;;2.30;2.10;;;16.40;54.70;;;;;;5000980;28;20512;-58
2022/12/26 07:21:18;;;;;;;2.47;2.10;;;16.40;54.80;;;;;;4999560;28;20968;-58
2022/12/26 07:23:44;;;;;;;2.63;2.43;;;16.50;54.60;;;;;;4992764;28;20516;-58
2022/12/26 07:26:09;;;;;;;2.00;1.90;;;16.50;54.40;;;;;;4990330;28;20226;-58
2022/12/26 07:28:35;;;;;;;3.30;2.10;;;16.50;54.60;;;;;;4992430;28;20198;-58
2022/12/26 07:31:01;;;;;;;2.73;2.23;;;16.60;54.60;;;;;;4993975;28;20203;-58
2022/12/26 07:33:28;;;;;;;2.60;2.40;;;16.50;55.00;;;;;;4994364;28;20203;-58
2022/12/26 07:35:57;;;;;;;3.70;2.67;;;16.50;55.10;;;;;;4994079;28;20425;-58
2022/12/26 07:38:23;;;;;;;3.00;2.70;;;16.60;54.90;;;;;;4993561;28;20545;-58
2022/12/26 07:40:48;;;;;;;2.10;1.90;;;16.40;54.80;;;;;;4993697;28;21007;-58
2022/12/26 07:43:14;;;;;;;3.50;2.37;;;16.30;55.10;;;;;;4993533;28;20226;-58
2022/12/26 07:45:39;;;;;;;2.70;2.37;;;16.50;55.10;;;;;;4993880;28;20234;-58
2022/12/26 07:48:05;;;;;;;2.70;2.50;;;16.50;54.90;;;;;;4993421;28;20201;-58
2022/12/26 07:50:31;;;;;;;2.80;2.60;;;16.60;54.60;;;;;;4993695;28;20194;-58
2022/12/26 07:52:58;;;;;;;3.43;1.90;;;16.70;54.50;;;;;;4994045;28;20193;-58
2022/12/26 07:55:24;;;;;;;2.80;2.60;;;16.80;54.30;;;;;;4991989;28;20207;-58
2022/12/26 07:57:51;;;;;;;2.63;2.43;;;16.60;54.50;;;;;;4993239;28;20424;-58
2022/12/26 08:00:18;;;;;;;2.30;2.10;;;16.70;54.50;;;;;;4993413;28;20659;-58
2022/12/26 08:02:45;;;;;;;2.30;2.10;;;16.60;54.70;;;;;;4993467;28;20426;-58
2022/12/26 08:05:11;;;;;;;2.57;2.20;;;16.50;54.60;;;;;;4993374;28;20485;-58
2022/12/26 08:07:36;;;;;;;2.40;2.20;;;16.60;54.80;;;;;;4992923;28;20426;-58
2022/12/26 08:10:02;;;;;;;2.50;2.03;;;16.60;54.70;;;;;;4993384;28;20323;-58
2022/12/26 08:12:28;;;;;;;2.40;2.20;;;16.70;54.60;;;;;;4993372;28;20186;-58
2022/12/26 08:14:53;;;;;;;2.40;2.20;;;16.60;55.00;;;;;;4993184;28;20333;-58
2022/12/26 08:17:19;;;;;;;2.80;2.60;;;16.50;55.70;;;;;;4992618;28;20246;-58
2022/12/26 08:19:44;;;;;;;3.50;2.60;;;16.50;56.60;;;;;;5005886;28;20288;-58
2022/12/26 08:22:10;;;;;;;3.00;2.33;;;16.70;56.10;;;;;;4992108;28;20202;-58
2022/12/26 08:24:35;;;;;;;2.80;2.60;;;16.70;56.00;;;;;;4987780;28;20225;-58
2022/12/26 08:27:03;;;;;;;4.13;2.60;;;16.70;56.00;;;;;;4993040;28;20187;-58
2022/12/26 08:29:28;;;;;;;3.10;2.43;;;16.70;56.00;;;;;;4992433;28;20556;-58
2022/12/26 08:31:54;;;;;;;2.60;2.33;;;16.70;55.80;;;;;;4993038;28;20422;-58
2022/12/26 08:34:19;;;;;;;3.00;2.70;;;16.60;55.80;;;;;;4993021;28;20194;-59
2022/12/26 08:36:48;;;;;;;3.47;2.47;;;16.50;56.30;;;;;;4992843;28;20202;-58
2022/12/26 08:39:14;;;;;;;2.00;1.90;;;16.50;56.50;;;;;;4992194;28;20592;-58
2022/12/26 08:41:39;;;;;;;2.97;2.67;;;16.50;56.70;;;;;;4992757;28;20461;-58
2022/12/26 08:44:05;;;;;;;2.80;2.50;;;16.50;56.50;;;;;;4992536;28;20685;-58
2022/12/26 08:46:31;;;;;;;3.03;2.13;;;16.50;56.60;;;;;;4991218;28;20205;-58
2022/12/26 08:48:56;;;;;;;2.20;2.10;;;16.50;56.80;;;;;;4991952;28;20647;-59
2022/12/26 08:51:23;;;;;;;2.60;2.40;;;16.40;57.10;;;;;;4992565;28;20269;-58
2022/12/26 08:53:53;;;;;;;3.00;2.60;;;16.40;57.10;;;;;;4991873;28;20312;-58
2022/12/26 08:56:22;;;;;;;3.70;2.60;;;16.30;57.10;;;;;;4992442;28;20437;-58
2022/12/26 08:58:47;;;;;;;3.50;3.20;;;16.40;57.30;;;;;;4991927;28;20932;-58
2022/12/26 09:01:19;;;;;;;2.53;2.33;;;16.40;57.30;;;;;;4992478;28;20422;-58
2022/12/26 09:03:45;;;;;;;3.10;2.80;;;16.20;57.10;;;;;;4992301;28;20230;-58
2022/12/26 09:06:12;;;;;;;2.83;2.60;;;16.20;57.30;;;;;;4992528;28;20641;-58
2022/12/26 09:08:39;;;;;;;2.40;2.20;;;16.30;57.50;;;;;;4991984;28;20429;-58
2022/12/26 09:11:07;;;;;;;3.43;2.70;;;16.30;57.60;;;;;;4992365;28;20897;-58
2022/12/26 09:13:34;;;;;;;3.20;2.60;;;16.30;57.80;;;;;;4990560;28;20867;-58
2022/12/26 09:16:05;;;;;;;3.27;2.97;;;16.20;58.80;;;;;;4992221;28;20513;-59
2022/12/26 09:18:31;;;;;;;3.10;2.70;;;16.10;59.20;;;;;;4996440;28;20417;-58
2022/12/26 09:20:59;;;;;;;4.20;3.30;;;16.30;59.10;;;;;;5000636;28;20425;-58
2022/12/26 09:23:26;;;;;;;2.90;2.60;;;16.30;59.50;;;;;;4992249;28;20852;-58
2022/12/26 09:25:51;;;;;;;3.33;2.50;;;16.30;60.00;;;;;;4986942;28;20544;-58
2022/12/26 09:28:17;;;;;;;3.40;3.20;;;16.30;60.20;;;;;;4991608;28;20763;-58
2022/12/26 09:30:43;;;;;;;4.83;3.30;;;16.40;60.60;;;;;;4992212;28;20292;-58
2022/12/26 09:33:09;;;;;;;4.67;3.50;;;16.40;60.80;;;;;;4992052;28;20252;-58
2022/12/26 09:35:39;;;;;;;3.40;3.10;;;16.40;60.70;;;;;;4991974;28;20426;-58
2022/12/26 09:38:04;;;;;;;4.40;3.17;;;16.50;60.70;;;;;;4991511;28;20341;-58
2022/12/26 09:40:55;;;;;;;4.30;3.13;;;16.60;61.00;;;;;;4990405;28;20902;-58
2022/12/26 09:43:43;;;;;;;3.47;3.17;;;16.60;61.20;;;;;;4991397;28;20210;-58
2022/12/26 09:46:32;;;;;;;6.40;2.90;;;16.60;61.80;;;;;;4991842;28;20985;-58
2022/12/26 09:49:16;;;;;;;4.57;3.03;;;16.60;61.80;;;;;;4991500;28;20426;-58
2022/12/26 09:51:46;;;;;;;6.37;5.77;;;16.60;62.00;;;;;;4991921;28;20422;-58
2022/12/26 09:54:32;;;;;;;4.93;4.40;;;16.60;62.70;;;;;;4991778;28;20465;-58
2022/12/26 09:56:59;;;;;;;4.70;4.27;;;16.60;63.10;;;;;;4991437;28;20437;-59
2022/12/26 09:59:26;;;;;;;6.50;3.27;;;16.60;63.50;;;;;;4991824;28;20436;-58
2022/12/26 10:01:52;;;;;;;6.17;3.37;;;16.60;63.90;;;;;;4991696;28;21258;-58
2022/12/26 10:04:23;;;;;;;3.77;3.47;;;16.60;64.10;;;;;;4991573;28;20836;-58
2022/12/26 10:07:20;;;;;;;4.97;4.23;;;16.60;64.20;;;;;;4993234;28;20865;-58
2022/12/26 10:10:04;;;;;;;6.70;4.60;;;16.60;64.30;;;;;;4995497;28;20588;-58
2022/12/26 10:12:42;;;;;;;4.63;3.97;;;16.50;64.40;;;;;;4995353;28;20929;-58
2022/12/26 10:15:27;;;;;;;7.53;4.60;;;16.40;64.80;;;;;;4995422;28;20441;-58
2022/12/26 10:18:02;;;;;;;10.37;5.63;;;16.30;66.10;;;;;;4994896;28;20542;-59
2022/12/26 10:20:55;;;;;;;4.63;4.23;;;16.30;65.90;;;;;;4983210;28;20524;-58
2022/12/26 10:23:31;;;;;;;4.47;4.17;;;16.20;66.50;;;;;;4995276;28;20460;-58
2022/12/26 10:26:05;;;;;;;5.70;3.87;;;16.20;66.60;;;;;;4995404;28;20492;-58
2022/12/26 10:28:35;;;;;;;4.03;3.63;;;16.20;66.90;;;;;;4994930;28;20429;-59
2022/12/26 10:31:05;;;;;;;3.97;3.67;;;16.20;67.20;;;;;;4995126;28;20441;-58
2022/12/26 10:33:49;;;;;;;6.33;5.50;;;16.20;67.20;;;;;;4993860;28;20440;-58
2022/12/26 10:36:25;;;;;;;8.23;7.00;;;16.20;67.30;;;;;;4994958;28;20429;-58
2022/12/26 10:38:54;;;;;;;7.00;5.40;;;16.20;67.40;;;;;;4994634;28;20444;-58
2022/12/26 10:41:31;;;;;;;9.77;5.87;;;16.20;67.70;;;;;;4994802;28;20441;-58
2022/12/26 10:43:57;;;;;;;11.17;7.70;;;16.20;67.90;;;;;;4994885;28;20429;-58
2022/12/26 10:46:43;;;;;;;10.33;7.70;;;16.20;67.90;;;;;;4994660;28;20850;-58
2022/12/26 10:49:12;;;;;;;10.90;6.80;;;16.20;67.90;;;;;;4994516;28;20200;-58
2022/12/26 10:51:38;;;;;;;11.03;6.73;;;16.20;68.80;;;;;;4994877;28;20465;-58
2022/12/26 10:54:13;;;;;;;10.50;6.80;;;16.20;68.00;;;;;;4994668;28;20505;-58
2022/12/26 10:56:38;;;;;;;7.50;6.10;;;16.20;68.10;;;;;;4994840;28;20888;-58
2022/12/26 10:59:08;;;;;;;6.00;5.40;;;16.20;68.50;;;;;;4992547;28;20458;-58
2022/12/26 11:01:37;;;;;;;7.57;4.30;;;16.20;68.60;;;;;;4993342;28;20642;-58
2022/12/26 11:04:13;;;;;;;5.93;5.40;;;16.10;68.70;;;;;;4994517;28;20504;-58
2022/12/26 11:06:41;;;;;;;5.27;4.77;;;16.00;68.80;;;;;;4994577;28;20483;-58
2022/12/26 11:09:21;;;;;;;7.13;4.20;;;16.10;68.80;;;;;;4993935;28;20454;-58
2022/12/26 11:11:50;;;;;;;6.60;4.50;;;16.10;69.10;;;;;;4994248;28;20429;-58
2022/12/26 11:14:40;;;;;;;6.90;5.77;;;16.20;69.10;;;;;;4994310;28;20434;-58
2022/12/26 11:17:23;;;;;;;4.50;3.50;;;16.10;68.80;;;;;;4985660;28;20501;-58
2022/12/26 11:20:07;;;;;;;7.00;5.33;;;15.90;69.50;;;;;;4994280;28;20425;-58
2022/12/26 11:22:32;;;;;;;4.70;4.17;;;16.00;69.10;;;;;;4994323;28;20434;-58
2022/12/26 11:25:10;;;;;;;7.63;4.40;;;16.00;69.40;;;;;;4994056;28;20493;-58
2022/12/26 11:27:57;;;;;;;5.93;4.90;;;16.10;69.10;;;;;;4992558;28;20198;-58
2022/12/26 11:30:27;;;;;;;4.47;4.03;;;16.20;69.00;;;;;;4994235;28;20436;-58
2022/12/26 11:33:16;;;;;;;4.40;3.77;;;16.20;68.80;;;;;;4994107;28;20429;-58
2022/12/26 11:35:49;;;;;;;6.13;4.20;;;16.20;68.70;;;;;;4993994;28;20451;-58
2022/12/26 11:38:33;;;;;;;5.77;4.47;;;16.20;68.80;;;;;;4993874;28;20426;-58
2022/12/26 11:43:44;;;;;;;5.83;4.77;;;16.10;68.90;;;;;;4994104;28;20425;-58
2022/12/26 11:46:10;;;;;;;8.10;5.80;;;16.10;69.10;;;;;;4993888;28;20976;-58
2022/12/26 11:48:35;;;;;;;7.70;5.00;;;16.20;69.00;;;;;;4993646;28;20325;-58
2022/12/26 11:51:01;;;;;;;5.70;5.13;;;16.30;68.80;;;;;;4993757;28;20199;-58
2022/12/26 11:53:26;;;;;;;6.57;4.77;;;16.30;68.80;;;;;;4992073;28;20202;-58
2022/12/26 11:56:04;;;;;;;3.90;3.60;;;16.30;68.70;;;;;;4993596;28;20571;-58
2022/12/26 11:58:32;;;;;;;3.17;2.97;;;16.10;68.00;;;;;;4993104;28;20194;-58
2022/12/26 12:01:00;;;;;;;3.63;3.30;;;15.80;68.30;;;;;;4993682;28;20422;-58
2022/12/26 12:03:44;;;;;;;3.77;2.63;;;15.70;68.70;;;;;;4993287;28;20806;-58
2022/12/26 12:06:46;;;;;;;5.90;3.37;;;15.80;68.10;;;;;;4993436;28;20529;-58
2022/12/26 12:09:19;;;;;;;3.37;2.47;;;15.90;67.40;;;;;;4993515;28;20507;-58
2022/12/26 12:12:22;;;;;;;2.77;2.53;;;15.80;67.30;;;;;;4993288;28;20473;-58
2022/12/26 12:15:27;;;;;;;4.10;2.80;;;15.90;67.00;;;;;;4993288;28;20511;-58
2022/12/26 12:18:18;;;;;;;3.37;3.00;;;16.00;67.00;;;;;;4991238;28;20485;-58
2022/12/26 12:21:17;;;;;;;3.70;3.40;;;16.00;67.50;;;;;;4981957;28;20437;-58
2022/12/26 12:23:46;;;;;;;3.70;2.83;;;16.10;67.60;;;;;;4993170;28;20508;-58
2022/12/26 12:26:31;;;;;;;3.90;3.47;;;16.10;68.00;;;;;;4992958;28;20496;-58
2022/12/26 12:29:19;;;;;;;3.60;3.13;;;16.00;68.10;;;;;;4991115;28;20454;-58
2022/12/26 12:32:08;;;;;;;4.27;3.30;;;15.90;68.50;;;;;;4992893;28;20457;-58
2022/12/26 12:34:49;;;;;;;5.43;3.97;;;15.80;69.10;;;;;;4992833;28;20437;-58
2022/12/26 12:37:33;;;;;;;3.83;3.43;;;15.80;69.50;;;;;;4992546;28;20440;-58
2022/12/26 12:40:32;;;;;;;3.23;2.93;;;15.80;70.20;;;;;;4992833;28;20465;-58
2022/12/26 12:43:04;;;;;;;3.67;3.27;;;15.90;69.70;;;;;;4992061;28;20442;-58
2022/12/26 12:45:42;;;;;;;3.10;2.80;;;16.00;69.50;;;;;;4991168;28;20485;-58
2022/12/26 12:48:28;;;;;;;4.20;3.80;;;16.10;69.20;;;;;;4992585;28;20455;-58
2022/12/26 12:51:13;;;;;;;4.97;3.70;;;16.10;68.80;;;;;;4992591;28;20437;-58
2022/12/26 12:53:57;;;;;;;3.50;3.20;;;16.00;68.90;;;;;;4993009;28;20992;-58
2022/12/26 12:56:44;;;;;;;3.93;2.83;;;16.00;69.00;;;;;;4992432;28;20442;-58
2022/12/26 12:59:27;;;;;;;3.50;3.20;;;15.80;69.60;;;;;;4992573;28;20855;-58
2022/12/26 13:01:58;;;;;;;6.13;3.10;;;15.80;69.70;;;;;;4992650;28;20429;-58
2022/12/26 13:04:31;;;;;;;4.30;3.20;;;15.70;70.10;;;;;;4992455;28;20440;-58
2022/12/26 13:07:08;;;;;;;3.27;2.70;;;15.60;70.30;;;;;;4991847;28;20441;-58
2022/12/26 13:09:41;;;;;;;2.77;2.57;;;15.50;70.40;;;;;;4992445;28;20524;-58
2022/12/26 13:12:18;;;;;;;3.43;2.57;;;15.50;70.30;;;;;;4990574;28;20941;-58
2022/12/26 13:14:51;;;;;;;2.70;2.50;;;15.50;69.50;;;;;;4992347;28;20797;-58
2022/12/26 13:17:26;;;;;;;3.43;2.40;;;15.50;69.50;;;;;;4991610;28;20988;-58
2022/12/26 13:20:06;;;;;;;2.30;2.10;;;15.50;69.60;;;;;;4992145;28;20430;-58
2022/12/26 13:25:34;;;;;;;2.07;1.97;;;15.40;69.10;;;;;;4991962;28;20505;-58
2022/12/26 13:28:08;;;;;;;1.40;1.30;;;15.30;68.70;;;;;;4991898;28;20425;-58
2022/12/26 13:30:35;;;;;;;1.90;1.40;;;15.30;68.80;;;;;;4992047;28;20438;-58
2022/12/26 13:33:01;;;;;;;2.93;1.43;;;15.20;68.10;;;;;;4991934;28;20426;-58
2022/12/26 13:35:48;;;;;;;1.63;1.53;;;15.30;67.70;;;;;;4992081;28;20422;-58
2022/12/26 13:38:14;;;;;;;1.07;1.07;;;15.10;67.90;;;;;;4989874;28;20817;-58
2022/12/26 13:44:19;;;;;;;1.20;1.10;;;15.20;67.50;;;;;;4996077;28;20724;-58
2022/12/26 13:46:44;;;;;;;3.27;1.47;;;15.30;67.20;;;;;;4984740;28;20466;-58
2022/12/26 13:49:39;;;;;;;0.97;0.90;;;15.30;66.20;;;;;;4996023;28;20437;-58
2022/12/26 13:52:10;;;;;;;1.03;0.90;;;15.00;66.30;;;;;;4995861;28;20694;-58
2022/12/26 13:54:51;;;;;;;2.47;1.07;;;15.00;66.60;;;;;;4995739;28;20434;-58
2022/12/26 13:57:38;;;;;;;1.10;0.90;;;15.10;66.20;;;;;;4995699;28;20939;-58
2022/12/26 14:00:03;;;;;;;1.37;1.27;;;15.10;65.80;;;;;;4995704;28;20438;-58
2022/12/26 14:03:14;;;;;;;1.30;1.20;;;15.10;66.40;;;;;;4995680;28;20488;-58
2022/12/26 14:06:05;;;;;;;1.23;1.13;;;15.30;66.30;;;;;;4994226;28;20312;-58
2022/12/26 14:08:33;;;;;;;1.27;1.10;;;15.40;66.50;;;;;;4995076;28;20433;-58
2022/12/26 14:11:11;;;;;;;1.23;1.13;;;15.20;66.20;;;;;;4995669;28;20508;-58
2022/12/26 14:13:47;;;;;;;2.40;1.33;;;15.30;66.70;;;;;;4995432;28;20436;-58
2022/12/26 14:16:17;;;;;;;1.57;1.40;;;15.20;66.40;;;;;;4995443;28;20484;-58
2022/12/26 14:19:05;;;;;;;1.13;1.03;;;15.00;67.30;;;;;;4994901;28;20913;-58
2022/12/26 14:21:31;;;;;;;1.40;1.30;;;15.10;67.10;;;;;;4995408;28;20450;-59
2022/12/26 14:24:28;;;;;;;1.47;1.37;;;15.20;66.90;;;;;;4995371;28;20438;-58
2022/12/26 14:27:36;;;;;;;1.90;1.60;;;15.50;66.60;;;;;;4975555;28;20199;-59
2022/12/26 14:30:22;;;;;;;1.57;1.47;;;15.70;65.80;;;;;;4974835;28;20486;-58
2022/12/26 14:32:58;;;;;;;1.77;1.67;;;15.70;65.60;;;;;;4974046;28;20447;-58
2022/12/26 14:35:53;;;;;;;2.40;1.43;;;15.70;66.00;;;;;;4975816;28;20457;-59
2022/12/26 14:38:38;;;;;;;2.20;1.80;;;15.70;66.10;;;;;;4982061;28;20461;-58
2022/12/26 14:41:04;;;;;;;1.97;1.87;;;15.70;66.00;;;;;;4995128;28;20434;-58
2022/12/26 14:43:40;;;;;;;4.50;2.47;;;15.70;65.90;;;;;;4994945;28;20432;-59
2022/12/26 14:46:31;;;;;;;2.67;2.47;;;15.80;65.80;;;;;;4994875;28;20226;-58
2022/12/26 14:49:20;;;;;;;1.73;1.63;;;15.90;65.50;;;;;;4994800;28;20422;-58
2022/12/26 14:51:46;;;;;;;2.40;1.47;;;15.90;65.40;;;;;;4994117;28;20430;-59
2022/12/26 14:54:21;;;;;;;1.90;1.70;;;15.80;65.40;;;;;;4994992;28;20821;-58
2022/12/26 14:56:49;;;;;;;1.60;1.50;;;15.60;65.80;;;;;;4994272;28;20276;-58
2022/12/26 14:59:30;;;;;;;2.60;1.63;;;15.70;66.00;;;;;;4993072;28;20520;-58
2022/12/26 15:02:17;;;;;;;2.30;2.00;;;15.70;66.10;;;;;;4994683;28;20434;-59
2022/12/26 15:04:58;;;;;;;1.90;1.70;;;15.70;65.90;;;;;;4994506;28;20493;-58
2022/12/26 15:07:45;;;;;;;2.20;1.87;;;15.80;65.80;;;;;;4994284;28;20600;-58
2022/12/26 15:10:43;;;;;;;2.60;2.40;;;15.80;65.60;;;;;;4994594;28;20538;-58
2022/12/26 15:13:46;;;;;;;5.10;1.60;;;15.90;65.40;;;;;;4978167;28;20452;-58
2022/12/26 15:16:34;;;;;;;1.20;1.10;;;15.80;65.10;;;;;;4992796;28;20491;-58
2022/12/26 15:19:34;;;;;;;1.50;1.40;;;15.80;65.40;;;;;;5002921;28;20429;-59
2022/12/26 15:22:21;;;;;;;1.70;1.60;;;15.90;65.10;;;;;;4994361;28;20793;-59
2022/12/26 15:25:15;;;;;;;1.40;1.30;;;15.90;65.10;;;;;;4987808;28;20465;-58
2022/12/26 15:28:05;;;;;;;1.40;1.30;;;15.80;65.00;;;;;;4994000;28;20655;-58
2022/12/26 15:30:57;;;;;;;1.40;1.30;;;15.80;64.90;;;;;;4994221;28;20444;-58
2022/12/26 15:33:32;;;;;;;1.30;1.20;;;15.70;65.40;;;;;;4994312;28;20426;-59